Time;durP1;ratioP1;P1;durP2;ratioP2;P2;SDS_P1;SDS_P2;PMS_P1;PMS_P2;Temp;Humidity;BMP_temperature;BMP_pressure;BME280_temperature;BME280_humidity;BME280_pressure;Samples;Min_cycle;Max_cycle;Signal;HPM_P1;HPM_P2
2023/08/16 00:00:58;;;;;;;0.32;0.32;;;;;;;15.84;93.35;99949.13;4824569;29;20073;-83
2023/08/16 00:03:25;;;;;;;0.30;0.30;;;;;;;15.87;93.23;99954.88;4840275;29;20587;-85
2023/08/16 00:05:53;;;;;;;0.40;0.40;;;;;;;15.93;92.86;99942.97;4841426;29;20577;-86
2023/08/16 00:08:20;;;;;;;0.30;0.30;;;;;;;15.89;92.72;99952.72;4840460;29;20083;-87
2023/08/16 00:10:47;;;;;;;0.30;0.30;;;;;;;15.76;92.88;99951.22;4824014;29;20509;-88
2023/08/16 00:13:14;;;;;;;0.30;0.30;;;;;;;15.65;93.77;99954.88;4840142;29;20114;-87
2023/08/16 00:15:41;;;;;;;0.40;0.40;;;;;;;15.63;94.00;99953.50;4840055;29;20061;-86
2023/08/16 00:18:09;;;;;;;0.40;0.40;;;;;;;15.62;94.24;99955.38;4841217;29;20050;-88
2023/08/16 00:20:36;;;;;;;0.30;0.30;;;;;;;15.67;94.54;99951.88;4824774;29;20053;-86
2023/08/16 00:23:03;;;;;;;0.30;0.30;;;;;;;15.71;94.23;99963.94;4845917;29;20064;-86
2023/08/16 00:25:30;;;;;;;0.40;0.40;;;;;;;15.69;94.07;99963.34;4828871;29;20053;-86
2023/08/16 00:27:58;;;;;;;0.40;0.40;;;;;;;15.70;94.19;99967.72;4842307;29;20050;-86
2023/08/16 00:30:25;;;;;;;0.30;0.30;;;;;;;15.68;94.06;99972.59;4825667;29;20149;-86
2023/08/16 00:32:52;;;;;;;0.40;0.40;;;;;;;15.63;94.20;99967.91;4835236;29;20102;-87
2023/08/16 00:35:19;;;;;;;0.30;0.30;;;;;;;15.61;94.39;99968.16;4843984;29;20050;-86
2023/08/16 00:37:48;;;;;;;0.40;0.40;;;;;;;15.68;94.40;99967.97;4861963;29;20053;-87
2023/08/16 00:40:16;;;;;;;0.30;0.30;;;;;;;15.66;94.33;99958.41;4880189;29;20030;-87
2023/08/16 00:42:44;;;;;;;0.35;0.35;;;;;;;15.65;94.55;99962.19;4860735;29;20471;-86
2023/08/16 00:45:12;;;;;;;0.40;0.40;;;;;;;15.56;94.47;99970.81;4828201;29;20141;-87
2023/08/16 00:47:39;;;;;;;0.40;0.40;;;;;;;15.49;94.81;99970.19;4842766;29;20050;-86
2023/08/16 00:50:07;;;;;;;0.30;0.30;;;;;;;15.35;95.11;99961.59;4824775;29;20460;-86
2023/08/16 00:52:35;;;;;;;0.38;0.38;;;;;;;15.28;95.72;99966.38;4834407;29;20061;-88
2023/08/16 00:55:04;;;;;;;0.30;0.30;;;;;;;15.28;96.21;99971.00;4842916;29;20049;-88
2023/08/16 00:57:31;;;;;;;0.32;0.32;;;;;;;15.23;96.58;99976.38;4857522;29;20050;-87
2023/08/16 00:59:58;;;;;;;0.40;0.40;;;;;;;15.23;96.59;99968.22;4873234;29;20058;-86
2023/08/16 01:02:26;;;;;;;0.40;0.40;;;;;;;15.20;96.64;99971.47;4860213;29;20053;-87
2023/08/16 01:04:55;;;;;;;0.30;0.30;;;;;;;15.15;96.96;99981.19;4860857;29;20061;-86
2023/08/16 01:07:22;;;;;;;0.40;0.40;;;;;;;15.13;96.90;99979.78;4861526;29;20136;-86
2023/08/16 01:09:51;;;;;;;0.30;0.30;;;;;;;15.07;97.19;99978.91;4879104;29;20053;-86
2023/08/16 01:12:24;;;;;;;0.40;0.40;;;;;;;15.00;97.51;99974.72;4861496;29;20547;-88
2023/08/16 01:15:06;;;;;;;0.40;0.40;;;;;;;14.98;97.77;99980.38;4848039;29;20105;-86
2023/08/16 01:17:34;;;;;;;0.35;0.35;;;;;;;14.92;97.79;99975.97;4863836;29;20056;-88
2023/08/16 01:20:03;;;;;;;0.40;0.40;;;;;;;14.87;98.34;99970.44;4892929;29;20064;-87
2023/08/16 01:22:48;;;;;;;0.40;0.40;;;;;;;14.87;98.60;99978.59;4859503;29;20059;-87
2023/08/16 01:25:48;;;;;;;0.40;0.40;;;;;;;14.84;99.01;99979.09;4861411;29;20080;-86
2023/08/16 01:28:16;;;;;;;0.40;0.40;;;;;;;14.86;98.66;99977.78;4881072;29;20416;-85
2023/08/16 01:30:45;;;;;;;0.40;0.40;;;;;;;14.83;98.84;99980.16;4849355;29;20053;-87
2023/08/16 01:33:13;;;;;;;0.30;0.30;;;;;;;14.81;99.00;99982.28;4848992;29;20544;-87
2023/08/16 01:35:41;;;;;;;0.40;0.40;;;;;;;14.77;99.40;99986.59;4865523;29;20053;-86
2023/08/16 01:38:10;;;;;;;0.40;0.40;;;;;;;14.69;99.96;99983.22;4881919;29;20053;-89
2023/08/16 01:40:39;;;;;;;0.40;0.40;;;;;;;14.71;100.00;99986.53;4849252;29;20081;-87
2023/08/16 01:43:09;;;;;;;0.30;0.30;;;;;;;14.61;100.00;99989.06;4864285;29;20498;-86
2023/08/16 01:45:36;;;;;;;0.40;0.40;;;;;;;14.61;100.00;100001.81;4833760;29;20045;-88
2023/08/16 01:48:10;;;;;;;0.40;0.40;;;;;;;14.62;100.00;99990.72;4849770;29;20053;-87
2023/08/16 01:50:37;;;;;;;0.40;0.40;;;;;;;14.61;100.00;100008.09;4865057;29;20053;-87
2023/08/16 01:53:05;;;;;;;0.40;0.40;;;;;;;14.66;100.00;100010.91;4849739;29;20126;-87
2023/08/16 01:55:32;;;;;;;0.40;0.40;;;;;;;14.66;100.00;100005.47;4832143;29;20049;-88
2023/08/16 01:58:00;;;;;;;0.40;0.40;;;;;;;14.64;100.00;100004.88;4845385;29;20053;-88
2023/08/16 02:00:27;;;;;;;0.40;0.40;;;;;;;14.59;100.00;100010.22;4845042;29;20474;-87
2023/08/16 02:02:54;;;;;;;0.40;0.40;;;;;;;14.51;100.00;99997.84;4861563;29;20504;-86
2023/08/16 02:05:21;;;;;;;0.30;0.30;;;;;;;14.55;100.00;100014.50;4861891;29;20483;-87
2023/08/16 02:07:49;;;;;;;0.40;0.40;;;;;;;14.43;100.00;100009.13;4846015;29;20053;-88
2023/08/16 02:10:16;;;;;;;0.40;0.40;;;;;;;14.41;100.00;100018.59;4846462;29;20061;-88
2023/08/16 02:12:43;;;;;;;0.40;0.40;;;;;;;14.33;100.00;100014.38;4846449;29;20049;-87
2023/08/16 02:15:11;;;;;;;0.40;0.40;;;;;;;14.30;100.00;100021.13;4846636;29;20057;-87
2023/08/16 02:17:38;;;;;;;0.40;0.40;;;;;;;14.22;100.00;100018.78;4800888;29;20049;-85
2023/08/16 02:20:06;;;;;;;0.40;0.40;;;;;;;14.25;100.00;100026.44;4845537;29;20500;-86
2023/08/16 02:22:33;;;;;;;0.40;0.40;;;;;;;14.26;100.00;100024.56;4832819;29;20084;-86
2023/08/16 02:25:11;;;;;;;0.40;0.40;;;;;;;14.33;100.00;100027.94;4847117;29;20425;-86
2023/08/16 02:27:39;;;;;;;0.40;0.40;;;;;;;14.40;100.00;100016.91;4846770;29;20101;-86
2023/08/16 02:30:09;;;;;;;0.40;0.40;;;;;;;14.42;100.00;100025.66;4845308;29;20434;-87
2023/08/16 02:32:37;;;;;;;0.40;0.40;;;;;;;14.43;100.00;100021.84;4846569;29;20065;-87
2023/08/16 02:35:05;;;;;;;0.40;0.40;;;;;;;14.50;100.00;100036.94;4830754;29;20077;-85
2023/08/16 02:37:33;;;;;;;0.40;0.40;;;;;;;14.51;100.00;100021.47;4845471;29;20041;-88
2023/08/16 02:40:00;;;;;;;0.40;0.40;;;;;;;14.53;100.00;100024.78;4831259;29;20050;-86
2023/08/16 02:42:30;;;;;;;0.40;0.40;;;;;;;14.55;100.00;100027.25;4831751;29;20061;-89
2023/08/16 02:44:57;;;;;;;0.40;0.40;;;;;;;14.60;100.00;100033.59;4849068;29;20088;-89
2023/08/16 02:47:24;;;;;;;0.40;0.40;;;;;;;14.62;100.00;100036.91;4851876;29;20512;-87
2023/08/16 02:49:52;;;;;;;0.40;0.40;;;;;;;14.57;100.00;100022.41;4811411;29;20097;-89
2023/08/16 02:52:19;;;;;;;0.40;0.40;;;;;;;14.68;100.00;100035.06;4809037;29;20407;-87
2023/08/16 02:54:46;;;;;;;0.40;0.40;;;;;;;14.67;100.00;100031.53;4795589;29;20521;-86
2023/08/16 02:57:15;;;;;;;0.40;0.40;;;;;;;14.64;100.00;100032.03;4813824;29;20054;-87
2023/08/16 02:59:47;;;;;;;0.43;0.43;;;;;;;14.72;100.00;100020.75;4821600;29;20059;-86
2023/08/16 03:02:17;;;;;;;0.40;0.40;;;;;;;14.91;100.00;100034.94;4816592;29;20531;-85
2023/08/16 03:04:44;;;;;;;0.40;0.40;;;;;;;14.95;100.00;100029.81;4841215;29;20053;-86
2023/08/16 03:07:11;;;;;;;0.40;0.40;;;;;;;15.01;99.28;100047.84;4810020;29;20071;-86
2023/08/16 03:09:39;;;;;;;0.40;0.40;;;;;;;15.03;99.03;100040.25;4824699;29;20076;-85
2023/08/16 03:12:06;;;;;;;0.40;0.40;;;;;;;15.10;98.64;100046.34;4825984;29;20103;-86
2023/08/16 03:14:34;;;;;;;0.40;0.40;;;;;;;15.21;98.24;100055.47;4825884;29;20101;-85
2023/08/16 03:17:04;;;;;;;0.40;0.40;;;;;;;15.33;97.78;100050.75;4843886;29;20058;-90
2023/08/16 03:19:33;;;;;;;0.40;0.40;;;;;;;15.31;96.95;100043.94;4797275;29;20503;-88
2023/08/16 03:22:00;;;;;;;0.40;0.40;;;;;;;15.35;96.33;100042.38;4831025;29;20050;-88
2023/08/16 03:24:27;;;;;;;0.40;0.40;;;;;;;15.47;96.29;100064.00;4833454;29;20050;-87
2023/08/16 03:26:56;;;;;;;0.40;0.40;;;;;;;15.50;96.26;100058.09;4818818;29;20046;-85
2023/08/16 03:29:25;;;;;;;0.40;0.40;;;;;;;15.56;95.74;100060.59;4810920;29;20052;-85
2023/08/16 03:31:53;;;;;;;0.50;0.50;;;;;;;15.64;95.46;100063.97;4840942;29;20079;-84
2023/08/16 03:34:20;;;;;;;0.50;0.50;;;;;;;15.73;95.08;100065.22;4824475;29;20080;-85
2023/08/16 03:36:47;;;;;;;0.40;0.40;;;;;;;15.83;94.95;100057.19;4840932;29;20058;-86
2023/08/16 03:39:15;;;;;;;0.40;0.40;;;;;;;15.94;94.34;100058.94;4824806;29;20590;-87
2023/08/16 03:41:43;;;;;;;0.40;0.40;;;;;;;16.06;93.89;100058.81;4810065;29;20086;-87
2023/08/16 03:44:10;;;;;;;0.40;0.40;;;;;;;16.19;92.76;100066.56;4844079;29;20573;-86
2023/08/16 03:46:38;;;;;;;0.40;0.40;;;;;;;16.33;92.11;100069.72;4828354;29;20153;-87
2023/08/16 03:49:05;;;;;;;0.40;0.40;;;;;;;16.63;90.71;100071.09;4826079;29;20096;-86
2023/08/16 03:51:32;;;;;;;0.30;0.30;;;;;;;16.76;89.37;100065.22;4823794;29;20050;-86
2023/08/16 03:54:00;;;;;;;0.40;0.40;;;;;;;16.90;88.37;100065.63;4836788;29;20841;-86
2023/08/16 03:56:27;;;;;;;0.40;0.40;;;;;;;17.07;86.62;100073.69;4854191;29;20057;-87
2023/08/16 03:58:55;;;;;;;0.40;0.40;;;;;;;17.28;85.36;100071.91;4843209;29;20504;-86
2023/08/16 04:01:22;;;;;;;0.40;0.40;;;;;;;17.44;85.13;100070.09;4812399;29;20072;-86
2023/08/16 04:03:55;;;;;;;0.40;0.40;;;;;;;17.55;84.98;100077.28;4861486;29;20065;-86
2023/08/16 04:06:23;;;;;;;0.40;0.40;;;;;;;17.63;82.96;100067.75;4823346;29;20050;-87
2023/08/16 04:08:50;;;;;;;0.40;0.40;;;;;;;17.71;82.09;100076.25;4851913;29;20079;-87
2023/08/16 04:11:17;;;;;;;0.40;0.40;;;;;;;17.81;82.52;100074.69;4852858;29;20114;-88
2023/08/16 04:13:45;;;;;;;0.40;0.40;;;;;;;17.90;81.40;100084.00;4839814;29;20056;-86
2023/08/16 04:16:12;;;;;;;0.40;0.40;;;;;;;18.00;80.22;100072.31;4828557;29;20076;-87
2023/08/16 04:18:40;;;;;;;0.40;0.40;;;;;;;18.05;79.83;100064.94;4825619;29;20141;-87
2023/08/16 04:21:07;;;;;;;0.40;0.40;;;;;;;18.21;78.70;100075.94;4841851;29;20589;-87
2023/08/16 04:23:34;;;;;;;0.40;0.40;;;;;;;18.26;77.91;100076.78;4841826;29;20414;-85
2023/08/16 04:26:02;;;;;;;0.40;0.40;;;;;;;18.35;77.40;100071.59;4839358;29;20073;-85
2023/08/16 04:28:32;;;;;;;0.40;0.40;;;;;;;18.47;77.43;100077.63;4839756;29;20057;-86
2023/08/16 04:31:00;;;;;;;0.40;0.40;;;;;;;18.56;77.32;100075.16;4840413;29;20083;-86
2023/08/16 04:33:28;;;;;;;0.40;0.40;;;;;;;18.61;76.52;100072.47;4842564;29;20052;-85
2023/08/16 04:35:56;;;;;;;0.30;0.30;;;;;;;18.73;76.95;100074.91;4842853;29;20061;-86
2023/08/16 04:38:24;;;;;;;0.40;0.40;;;;;;;18.75;76.02;100067.28;4842935;29;20049;-85
2023/08/16 04:40:52;;;;;;;0.40;0.40;;;;;;;18.81;75.36;100077.13;4828312;29;20050;-85
2023/08/16 04:43:22;;;;;;;0.32;0.32;;;;;;;18.91;74.75;100076.31;4842657;29;20064;-86
2023/08/16 04:45:49;;;;;;;0.40;0.40;;;;;;;18.97;74.09;100080.72;4842166;29;20565;-86
2023/08/16 04:48:17;;;;;;;0.40;0.40;;;;;;;19.06;73.89;100084.53;4824054;29;20054;-86
2023/08/16 04:50:44;;;;;;;0.30;0.30;;;;;;;19.16;73.60;100089.19;4835390;29;20049;-86
2023/08/16 04:53:12;;;;;;;0.40;0.40;;;;;;;19.26;73.71;100083.69;4858923;29;20092;-88
2023/08/16 04:55:41;;;;;;;0.30;0.30;;;;;;;19.35;73.81;100082.03;4823530;29;20065;-85
2023/08/16 04:58:09;;;;;;;0.30;0.30;;;;;;;19.42;73.37;100081.75;4837053;29;20071;-85
2023/08/16 05:00:42;;;;;;;0.40;0.40;;;;;;;19.51;72.65;100079.28;4841722;29;20114;-85
2023/08/16 05:03:16;;;;;;;0.40;0.40;;;;;;;19.52;71.52;100065.28;4855914;29;20061;-85
2023/08/16 05:05:44;;;;;;;0.40;0.40;;;;;;;19.64;70.64;100084.16;4834808;29;20048;-87
2023/08/16 05:08:11;;;;;;;0.30;0.30;;;;;;;19.64;70.30;100074.03;4828165;29;20062;-86
2023/08/16 05:10:39;;;;;;;0.30;0.30;;;;;;;19.81;70.49;100078.41;4835178;29;20077;-87
2023/08/16 05:13:06;;;;;;;0.40;0.40;;;;;;;19.90;70.31;100083.00;4859581;29;20060;-85
2023/08/16 05:15:34;;;;;;;0.40;0.40;;;;;;;20.00;69.34;100089.53;4848816;29;20078;-85
2023/08/16 05:18:01;;;;;;;0.30;0.30;;;;;;;20.04;69.39;100082.41;4847758;29;20128;-86
2023/08/16 05:20:29;;;;;;;0.40;0.40;;;;;;;20.15;69.19;100083.97;4860642;29;20076;-85
2023/08/16 05:22:56;;;;;;;0.40;0.40;;;;;;;20.25;68.75;100080.38;4837107;29;20054;-84
2023/08/16 05:25:23;;;;;;;0.40;0.40;;;;;;;20.32;68.41;100078.97;4862907;29;20064;-86
2023/08/16 05:27:50;;;;;;;0.40;0.40;;;;;;;20.47;67.75;100086.28;4862313;29;20057;-86
2023/08/16 05:30:20;;;;;;;0.30;0.30;;;;;;;20.52;67.02;100083.50;4852153;29;20054;-86
2023/08/16 05:32:47;;;;;;;0.30;0.30;;;;;;;20.55;66.95;100080.22;4837318;29;20141;-86
2023/08/16 05:35:15;;;;;;;0.30;0.30;;;;;;;20.72;67.42;100099.03;4860878;29;20077;-89
2023/08/16 05:37:42;;;;;;;0.40;0.40;;;;;;;20.81;65.85;100088.25;4853474;29;20111;-85
2023/08/16 05:40:12;;;;;;;0.30;0.30;;;;;;;20.89;65.75;100098.63;4860838;29;20105;-86
2023/08/16 05:42:43;;;;;;;0.30;0.30;;;;;;;20.89;65.82;100084.91;4845070;29;20065;-86
2023/08/16 05:45:10;;;;;;;0.40;0.40;;;;;;;21.02;65.25;100090.84;4843976;29;20081;-84
2023/08/16 05:47:40;;;;;;;0.30;0.30;;;;;;;21.11;64.75;100083.63;4840478;29;20053;-87
2023/08/16 05:50:11;;;;;;;0.30;0.30;;;;;;;21.26;64.26;100088.16;4861850;29;20053;-86
2023/08/16 05:52:39;;;;;;;0.30;0.30;;;;;;;21.30;63.34;100075.50;4849798;29;20525;-85
2023/08/16 05:55:07;;;;;;;0.30;0.30;;;;;;;21.20;63.92;100060.75;4794760;29;20057;-89
2023/08/16 05:57:35;;;;;;;0.30;0.30;;;;;;;21.38;63.26;100077.59;4801588;29;20107;-88
2023/08/16 06:00:04;;;;;;;0.30;0.30;;;;;;;21.39;63.02;100071.03;4829329;29;20131;-91
2023/08/16 06:02:46;;;;;;;0.30;0.30;;;;;;;21.37;62.24;100043.00;4826107;29;20053;-88
2023/08/16 06:05:17;;;;;;;0.30;0.30;;;;;;;21.48;62.85;100054.75;4818121;29;20485;-85
2023/08/16 06:07:48;;;;;;;0.30;0.30;;;;;;;21.51;61.43;100054.16;4838116;29;20121;-82
2023/08/16 06:10:15;;;;;;;0.30;0.30;;;;;;;21.62;61.41;100064.75;4838705;29;20115;-83
2023/08/16 06:12:44;;;;;;;0.30;0.30;;;;;;;21.73;61.41;100073.69;4839065;29;20134;-85
2023/08/16 06:15:14;;;;;;;0.30;0.30;;;;;;;21.85;61.28;100068.59;4788183;29;20085;-83
2023/08/16 06:17:43;;;;;;;0.30;0.30;;;;;;;21.88;60.37;100069.09;4837135;29;20054;-85
2023/08/16 06:20:11;;;;;;;0.30;0.30;;;;;;;21.88;59.31;100067.19;4833958;29;20114;-85
2023/08/16 06:22:38;;;;;;;0.30;0.30;;;;;;;22.03;59.38;100069.75;4816127;29;20076;-84
2023/08/16 06:25:07;;;;;;;0.20;0.20;;;;;;;22.12;59.15;100074.56;4812923;29;20054;-84
2023/08/16 06:27:34;;;;;;;0.30;0.30;;;;;;;22.21;59.55;100075.59;4833618;29;20061;-85
2023/08/16 06:30:01;;;;;;;0.30;0.30;;;;;;;22.38;58.59;100062.13;4813269;29;20070;-82
2023/08/16 06:32:33;;;;;;;0.30;0.30;;;;;;;22.52;57.13;100069.66;4837531;29;20050;-85
2023/08/16 06:35:00;;;;;;;0.30;0.30;;;;;;;22.57;57.03;100070.38;4830883;29;20089;-83
2023/08/16 06:37:31;;;;;;;0.30;0.30;;;;;;;22.66;57.09;100073.25;4821518;29;20109;-84
2023/08/16 06:39:58;;;;;;;0.30;0.30;;;;;;;22.69;56.39;100065.25;4829900;29;20706;-85
2023/08/16 06:42:25;;;;;;;0.30;0.30;;;;;;;22.83;56.09;100070.78;4792510;29;20074;-86
2023/08/16 06:45:09;;;;;;;0.30;0.30;;;;;;;22.93;55.51;100062.34;4821968;29;20066;-84
2023/08/16 06:48:06;;;;;;;0.30;0.30;;;;;;;23.01;55.36;100069.13;4834234;29;20057;-84
2023/08/16 06:50:36;;;;;;;0.20;0.20;;;;;;;23.04;55.26;100056.72;4803164;29;20047;-84
2023/08/16 06:53:04;;;;;;;0.30;0.30;;;;;;;23.04;54.15;100063.06;4833115;29;20074;-84
2023/08/16 06:55:35;;;;;;;0.30;0.30;;;;;;;23.04;55.30;100062.22;4834990;29;20518;-83
2023/08/16 06:58:05;;;;;;;0.30;0.30;;;;;;;23.13;54.48;100066.72;4850680;29;20484;-87
2023/08/16 07:00:33;;;;;;;0.30;0.30;;;;;;;23.23;54.72;100065.72;4824366;29;20523;-86
2023/08/16 07:03:04;;;;;;;0.30;0.30;;;;;;;23.22;53.75;100069.63;4824524;29;20819;-88
2023/08/16 07:05:33;;;;;;;0.20;0.20;;;;;;;23.39;54.10;100069.00;4808771;29;20506;-83
2023/08/16 07:08:01;;;;;;;0.30;0.30;;;;;;;23.58;54.67;100055.16;4839047;29;20440;-83
2023/08/16 07:10:30;;;;;;;0.30;0.30;;;;;;;23.92;52.95;100054.75;4840105;29;20057;-84
2023/08/16 07:12:58;;;;;;;0.30;0.30;;;;;;;24.19;51.30;100070.47;4867449;29;20386;-86
2023/08/16 07:15:25;;;;;;;0.30;0.30;;;;;;;24.40;49.67;100070.81;4865036;29;20053;-86
2023/08/16 07:17:56;;;;;;;0.30;0.30;;;;;;;24.46;49.09;100074.31;4854387;29;20144;-81
2023/08/16 07:20:26;;;;;;;0.30;0.30;;;;;;;24.36;48.17;100060.72;4833180;29;20525;-87
2023/08/16 07:22:53;;;;;;;0.30;0.30;;;;;;;24.35;47.87;100059.06;4854081;29;20071;-85
2023/08/16 07:25:21;;;;;;;0.30;0.30;;;;;;;24.10;48.01;100066.78;4833094;29;20120;-86
2023/08/16 07:27:48;;;;;;;0.20;0.20;;;;;;;24.21;49.45;100076.47;4840480;29;20110;-86
2023/08/16 07:30:16;;;;;;;0.30;0.30;;;;;;;24.44;48.09;100063.56;4857589;29;20106;-85
2023/08/16 07:32:43;;;;;;;0.30;0.30;;;;;;;24.68;47.64;100064.41;4840989;29;20053;-88
2023/08/16 07:35:11;;;;;;;0.30;0.30;;;;;;;24.67;47.06;100052.56;4856428;29;20106;-88
2023/08/16 07:37:39;;;;;;;0.30;0.30;;;;;;;24.71;47.41;100072.06;4848655;29;20174;-87
2023/08/16 07:40:08;;;;;;;0.30;0.30;;;;;;;24.73;46.46;100067.06;4832773;29;20466;-85
2023/08/16 07:42:37;;;;;;;0.30;0.30;;;;;;;24.86;46.32;100071.69;4830296;29;20144;-87
2023/08/16 07:45:05;;;;;;;0.25;0.25;;;;;;;24.94;46.28;100070.94;4860389;29;20069;-86
2023/08/16 07:47:34;;;;;;;0.30;0.30;;;;;;;24.83;44.86;100066.78;4840009;29;20520;-85
2023/08/16 07:50:01;;;;;;;0.30;0.30;;;;;;;24.79;46.08;100057.53;4835265;29;20092;-86
2023/08/16 07:52:30;;;;;;;0.30;0.30;;;;;;;25.04;45.90;100067.09;4846922;29;20059;-87
2023/08/16 07:54:58;;;;;;;0.30;0.30;;;;;;;25.29;44.56;100063.72;4837405;29;20050;-88
2023/08/16 07:57:26;;;;;;;0.30;0.30;;;;;;;25.69;45.11;100066.47;4858091;29;20060;-87
2023/08/16 07:59:54;;;;;;;0.30;0.30;;;;;;;25.86;44.51;100057.47;4834854;29;20057;-87
2023/08/16 08:02:21;;;;;;;0.30;0.30;;;;;;;25.74;42.09;100058.03;4842172;29;20153;-87
2023/08/16 08:04:49;;;;;;;0.30;0.30;;;;;;;25.80;42.97;100055.97;4838567;29;20054;-86
2023/08/16 08:07:18;;;;;;;0.30;0.30;;;;;;;25.80;42.04;100053.19;4859629;29;20045;-86
2023/08/16 08:09:45;;;;;;;0.30;0.30;;;;;;;26.02;41.90;100037.63;4812748;29;20083;-88
2023/08/16 08:12:12;;;;;;;0.30;0.30;;;;;;;26.17;41.45;100037.97;4858577;29;20163;-87
2023/08/16 08:14:39;;;;;;;0.30;0.30;;;;;;;26.11;40.97;100047.59;4826325;29;20505;-86
2023/08/16 08:17:16;;;;;;;0.30;0.30;;;;;;;26.19;41.33;100048.72;4857787;29;20056;-88
2023/08/16 08:19:50;;;;;;;0.30;0.30;;;;;;;26.29;41.31;100048.41;4811681;29;20056;-87
2023/08/16 08:22:18;;;;;;;0.30;0.30;;;;;;;26.52;41.27;100054.63;4843328;29;20520;-90
2023/08/16 08:24:46;;;;;;;0.30;0.30;;;;;;;26.87;39.38;100043.53;4827253;29;20063;-87
2023/08/16 08:27:14;;;;;;;0.32;0.32;;;;;;;26.85;37.97;100056.09;4861733;29;20050;-87
2023/08/16 08:29:43;;;;;;;0.30;0.30;;;;;;;26.78;38.62;100049.06;4857057;29;20577;-87
2023/08/16 08:32:13;;;;;;;0.30;0.30;;;;;;;27.00;38.85;100047.25;4863594;29;20060;-88
2023/08/16 08:34:40;;;;;;;0.30;0.30;;;;;;;27.09;38.50;100041.69;4828435;29;20506;-86
2023/08/16 08:37:07;;;;;;;0.40;0.40;;;;;;;27.02;39.37;100033.91;4860060;29;20157;-89
2023/08/16 08:39:35;;;;;;;0.40;0.40;;;;;;;27.41;38.24;100032.81;4827823;29;20157;-88
2023/08/16 08:42:04;;;;;;;0.40;0.40;;;;;;;27.62;39.23;100052.28;4860130;29;20113;-88
2023/08/16 08:44:33;;;;;;;0.30;0.30;;;;;;;27.82;37.58;100038.84;4859302;29;20084;-88
2023/08/16 08:47:05;;;;;;;0.30;0.30;;;;;;;27.80;36.62;100041.94;4842647;29;20168;-88
2023/08/16 08:49:42;;;;;;;0.40;0.40;;;;;;;27.77;36.57;100042.56;4859181;29;20060;-87
2023/08/16 08:52:10;;;;;;;0.30;0.30;;;;;;;27.85;38.28;100047.31;4859756;29;20062;-89
2023/08/16 08:54:37;;;;;;;0.38;0.38;;;;;;;28.06;35.89;100055.66;4827378;29;20045;-87
2023/08/16 08:57:05;;;;;;;0.30;0.30;;;;;;;27.89;36.06;100050.22;4859531;29;20049;-88
2023/08/16 08:59:33;;;;;;;0.35;0.35;;;;;;;27.94;35.73;100044.47;4843760;29;20552;-87
2023/08/16 09:02:01;;;;;;;0.40;0.40;;;;;;;27.91;35.68;100047.94;4828548;29;20060;-86
2023/08/16 09:04:30;;;;;;;0.30;0.30;;;;;;;28.46;35.88;100046.91;4843218;29;20056;-88
2023/08/16 09:06:59;;;;;;;0.30;0.30;;;;;;;29.21;34.74;100054.38;4831031;29;20152;-89
2023/08/16 09:09:27;;;;;;;0.30;0.30;;;;;;;29.49;33.58;100053.72;4842956;29;20482;-89
2023/08/16 09:11:57;;;;;;;0.30;0.30;;;;;;;29.21;33.84;100054.38;4840114;29;20049;-88
2023/08/16 09:14:24;;;;;;;0.40;0.40;;;;;;;29.87;33.17;100052.59;4854337;29;20064;-89
2023/08/16 09:16:52;;;;;;;0.32;0.32;;;;;;;30.20;32.58;100056.00;4833597;29;20617;-88
2023/08/16 09:19:19;;;;;;;0.30;0.30;;;;;;;30.69;32.57;100052.31;4859620;29;20086;-90
2023/08/16 09:21:46;;;;;;;0.30;0.30;;;;;;;30.99;32.59;100047.19;4859312;29;20061;-86
2023/08/16 09:24:13;;;;;;;0.40;0.40;;;;;;;31.35;31.89;100048.13;4859774;29;20080;-87
2023/08/16 09:26:44;;;;;;;0.30;0.30;;;;;;;30.74;31.47;100038.13;4842662;29;20045;-87
2023/08/16 09:29:11;;;;;;;0.40;0.40;;;;;;;30.67;32.28;100033.16;4859361;29;20141;-88
2023/08/16 09:31:41;;;;;;;0.30;0.30;;;;;;;30.59;31.93;100045.25;4827052;29;20049;-88
2023/08/16 09:34:11;;;;;;;0.40;0.40;;;;;;;30.93;31.47;100029.09;4842589;29;20075;-87
2023/08/16 09:36:45;;;;;;;0.40;0.40;;;;;;;30.95;31.56;100037.13;4857343;29;20532;-88
2023/08/16 09:39:12;;;;;;;0.30;0.30;;;;;;;31.14;30.50;100036.41;4858742;29;20054;-86
2023/08/16 09:41:50;;;;;;;0.35;0.35;;;;;;;31.17;30.77;100036.53;4842961;29;20064;-85
2023/08/16 09:44:17;;;;;;;0.38;0.38;;;;;;;31.42;30.54;100028.78;4859176;29;20673;-88
2023/08/16 09:46:45;;;;;;;0.40;0.40;;;;;;;31.97;30.33;100042.91;4842541;29;20073;-85
2023/08/16 09:49:15;;;;;;;0.38;0.38;;;;;;;32.08;29.79;100037.56;4830507;29;20069;-87
2023/08/16 09:51:45;;;;;;;0.30;0.30;;;;;;;31.48;30.54;100040.50;4842172;29;20450;-86
2023/08/16 09:54:20;;;;;;;0.40;0.40;;;;;;;31.47;31.47;100028.56;4840448;29;20099;-86
2023/08/16 09:56:48;;;;;;;0.40;0.40;;;;;;;32.34;30.33;100034.94;4809004;29;20115;-86
2023/08/16 09:59:18;;;;;;;0.30;0.30;;;;;;;33.27;28.70;100038.75;4830545;29;20914;-84
2023/08/16 10:01:49;;;;;;;0.10;0.10;;;;;;;32.53;30.50;100028.56;4827213;29;20050;-87
2023/08/16 10:04:37;;;;;;;0.20;0.20;;;;;;;30.48;32.68;100034.97;4792832;30;20616;-85
2023/08/16 10:07:08;;;;;;;0.40;0.40;;;;;;;30.38;33.31;100050.19;4806016;30;20075;-86
2023/08/16 10:09:41;;;;;;;0.40;0.40;;;;;;;32.33;31.53;100035.31;4798106;29;20094;-86
2023/08/16 10:12:10;;;;;;;0.40;0.40;;;;;;;33.77;29.02;100041.63;4776917;29;20055;-87
2023/08/16 10:14:38;;;;;;;0.30;0.30;;;;;;;34.30;27.57;100033.19;4800705;29;20059;-87
2023/08/16 10:17:08;;;;;;;0.30;0.30;;;;;;;34.16;28.59;100042.22;4827668;29;20062;-84
2023/08/16 10:19:37;;;;;;;0.40;0.40;;;;;;;34.08;27.46;100034.88;4795922;29;20054;-85
2023/08/16 10:22:27;;;;;;;0.30;0.30;;;;;;;34.67;27.48;100041.69;4789064;29;20054;-86
2023/08/16 10:25:11;;;;;;;0.30;0.30;;;;;;;35.24;26.60;100033.06;4786407;29;20085;-85
2023/08/16 10:27:43;;;;;;;0.40;0.40;;;;;;;35.01;25.96;100026.81;4801539;29;20054;-87
2023/08/16 10:30:25;;;;;;;0.30;0.30;;;;;;;34.61;27.12;100031.19;4804749;29;20051;-86
2023/08/16 10:33:03;;;;;;;;;;;;;;;33.71;28.56;100029.94;4776225;29;20443;-87
2023/08/16 10:35:33;;;;;;;0.32;0.32;;;;;;;32.70;29.44;100018.94;4804819;29;20023;-87
2023/08/16 10:38:35;;;;;;;0.40;0.40;;;;;;;33.66;28.21;100027.47;4785298;29;20059;-89
2023/08/16 10:41:14;;;;;;;0.30;0.30;;;;;;;33.82;28.25;100013.28;4782046;29;20526;-86
2023/08/16 10:43:47;;;;;;;0.40;0.40;;;;;;;34.45;27.18;100025.78;4822329;29;20055;-88
2023/08/16 10:46:31;;;;;;;0.30;0.30;;;;;;;35.00;27.44;100016.81;4791253;29;20116;-85
2023/08/16 10:49:15;;;;;;;0.20;0.20;;;;;;;34.58;26.96;100023.53;4807511;29;20457;-85
2023/08/16 10:51:53;;;;;;;0.20;0.20;;;;;;;33.45;27.23;100023.13;4838265;29;20082;-84
2023/08/16 10:54:34;;;;;;;0.30;0.30;;;;;;;33.89;26.42;100013.41;4840650;29;20136;-83
2023/08/16 10:57:09;;;;;;;0.30;0.30;;;;;;;34.41;26.42;100003.34;4824784;29;20054;-85
2023/08/16 10:59:42;;;;;;;0.40;0.40;;;;;;;34.27;25.80;100005.94;4840839;29;20053;-85
2023/08/16 11:02:15;;;;;;;0.40;0.40;;;;;;;34.48;25.92;100014.59;4842758;29;20053;-86
2023/08/16 11:04:46;;;;;;;0.40;0.40;;;;;;;35.13;26.49;100009.75;4840633;29;20061;-85
2023/08/16 11:07:14;;;;;;;0.40;0.40;;;;;;;35.65;26.18;99998.53;4822145;29;20133;-85
2023/08/16 11:09:42;;;;;;;0.40;0.40;;;;;;;35.07;26.16;100002.81;4841082;29;20064;-85
2023/08/16 11:12:09;;;;;;;0.40;0.40;;;;;;;35.36;25.58;100007.53;4841686;29;20165;-86
2023/08/16 11:14:40;;;;;;;0.30;0.30;;;;;;;35.57;25.33;100000.47;4819360;29;20115;-85
2023/08/16 11:17:07;;;;;;;0.30;0.30;;;;;;;35.64;24.97;99997.75;4841652;29;20064;-84
2023/08/16 11:19:34;;;;;;;0.40;0.40;;;;;;;35.98;25.07;99994.72;4809424;29;20461;-87
2023/08/16 11:22:02;;;;;;;0.30;0.30;;;;;;;36.28;24.69;99985.28;4840994;29;20135;-86
2023/08/16 11:24:31;;;;;;;0.30;0.30;;;;;;;36.28;23.76;99993.72;4823237;29;20057;-86
2023/08/16 11:26:59;;;;;;;0.30;0.30;;;;;;;35.91;25.01;99995.50;4821237;29;20077;-85
2023/08/16 11:29:26;;;;;;;0.30;0.30;;;;;;;35.88;24.68;99976.66;4836159;29;20102;-85
2023/08/16 11:32:02;;;;;;;0.30;0.30;;;;;;;36.29;23.93;99986.91;4840623;29;20140;-86
2023/08/16 11:34:32;;;;;;;0.30;0.30;;;;;;;36.13;25.06;99976.78;4840010;29;20050;-84
2023/08/16 11:37:00;;;;;;;0.30;0.30;;;;;;;36.09;23.71;99973.16;4806896;29;20057;-85